KHST/HST METAR and TAF weather

Enter ICAO airport designator
Station Type Date Time Source
KHST METAR 2021/03/02 16:55 UTC NOAA

KHST 021655Z 15004KT 7SM SCT025 28/21 A3005 RMK SLPNO WND DATA ESTMD ALSTG/SLP ESTMD


Station Type Date Time Source
KHST Decoded METAR 2021/03/02 16:55 UTC NOAA

Homestead Air Force Base, FL, United States (KHST) 25-29N 080-23W
Mar 02, 2021 - 11:55 AM EST / 2021.03.02 1655 UTC
Wind: from the SSE (150 degrees) at 5 MPH (4 KT):0
Visibility: 7 mile(s):0
Sky conditions: partly cloudy
Temperature: 82 F (28 C)
Dew Point: 69 F (21 C)
Relative Humidity: 65%
Pressure (altimeter): 30.05 in. Hg (1017 hPa)
ob: KHST 021655Z 15004KT 7SM SCT025 28/21 A3005 RMK SLPNO WND DATA ESTMD ALSTG/SLP ESTMD
cycle: 17

Station Type Date Time Source
KHST TAF 2021/03/02 12:06 UTC NOAA

TAF KHST 021200Z 0212/0318 00000KT 9999 SCT025 BKN045 QNH3004INS
BECMG 0214/0215 15009KT 9999 SCT025 BKN045 QNH3000INS
BECMG 0223/0224 00000KT 9999 FEW025 QNH2996INS
BECMG 0315/0316 21012G18KT 9999 SCT025 BKN045 QNH2992INS TX29/0218Z TN21/0212Z

Example: see airport list